Norwegian Dream — C6LG5 — position and weather

sailwx.info

Track history (hours):
 
Tides and Currents Weather Stations Pressure Air Temp Water Temp Dewpoint Dewpoint Depression Visibility Wind Speed Wind Dir Waves Ship Positions

Norwegian Dream

Operator: Norwegian Cruise Line

Last reported at 2017-Aug-20 18:00 UTC. Time now 2017-Aug-20 20:44 UTC.
Position N 02°48' E 100°54'.

Type: Ship. MMSI: 308272000.

Wind from 090 at 10 knots

Barometer 1009.0 mb
Air temperature 29.0 ° C
Visibility: greater than 10.8 NM
Dewpoint 27.7 ° C
Water temperature 31.0 ° C

Date/timePositionNaut miles runAvg speedWind from/ knotsBaromVisibWave heightAir tempDewpointWater temp
2017-Aug-20 18:00N 02°48' E 100°54'18618.6 090 / 101009.010.8 29.027.731.0
2017-Aug-20 08:02N 01°12' E 103°33'119.7
2017-Aug-20 07:58N 01°12' E 103°34'714.3
2017-Aug-20 07:30N 01°13' E 103°41'612.4
2017-Aug-20 07:00N 01°15' E 103°47'2 4.5
2017-Aug-20 06:28N 01°16' E 103°49'0 0.0
2017-Aug-20 05:55N 01°16' E 103°49'0 0.0
2017-Aug-20 05:28N 01°16' E 103°49'0 0.0
2017-Aug-20 04:46N 01°16' E 103°49'0 0.0
2017-Aug-20 04:22N 01°16' E 103°49'0 0.0
2017-Aug-20 03:40N 01°16' E 103°49'0 0.0
2017-Aug-20 03:28N 01°16' E 103°49'0 0.0
2017-Aug-20 02:16N 01°16' E 103°49'0 0.0
2017-Aug-20 01:58N 01°16' E 103°49'0 0.0
2017-Aug-20 01:30N 01°16' E 103°49'1 2.8
2017-Aug-20 01:01N 01°15' E 103°48'4 7.7
2017-Aug-20 00:30N 01°12' E 103°49'5 9.3
2017-Aug-20 00:01N 01°09' E 103°46'611.1
2017-Aug-19 23:30N 01°05' E 103°42'5 9.6
2017-Aug-19 22:59N 01°04' E 103°37'4 8.9
2017-Aug-19 22:30N 01°06' E 103°34'4 8.9
2017-Aug-19 22:01N 01°08' E 103°30'5 8.9
2017-Aug-19 21:30N 01°10' E 103°26'35 9.9
2017-Aug-19 18:00N 01°24' E 102°54'19 0.8 050 / 141011.0 5.4 28.026.731.0
2017-Aug-18 18:00N 01°18' E 103°12'22 7.7 170 / 121012.010.8 27.027.030.0
2017-Aug-18 15:11N 01°12' E 103°33'2 7.9
2017-Aug-18 14:58N 01°12' E 103°35'4 7.8
2017-Aug-18 14:30N 01°11' E 103°38'7 7.0
2017-Aug-18 13:30N 01°08' E 103°45'3 6.5
2017-Aug-18 13:00N 01°10' E 103°47'3 6.0
2017-Aug-18 12:30N 01°13' E 103°48'3 5.5
2017-Aug-18 11:59N 01°16' E 103°49'0 0.0
2017-Aug-18 11:21N 01°16' E 103°49'0 0.0
2017-Aug-18 10:55N 01°16' E 103°49'0 0.0
2017-Aug-18 09:33N 01°16' E 103°49'0 0.0
2017-Aug-18 09:27N 01°16' E 103°49'0 0.0
2017-Aug-18 08:51N 01°16' E 103°49'0 0.0
2017-Aug-18 08:27N 01°16' E 103°49'0 0.0
2017-Aug-18 07:51N 01°16' E 103°49'0 0.0
2017-Aug-18 07:21N 01°16' E 103°49'0 0.0
2017-Aug-18 06:58N 01°16' E 103°49'0 0.0
2017-Aug-18 06:28N 01°16' E 103°49'0 0.0
2017-Aug-18 05:58N 01°16' E 103°49'0 0.0
2017-Aug-18 05:27N 01°16' E 103°49'1 2.1
2017-Aug-18 05:00N 01°16' E 103°48'4 7.1
2017-Aug-18 04:30N 01°12' E 103°49'5 9.7
2017-Aug-18 04:00N 01°08' E 103°46'612.1
2017-Aug-18 03:30N 01°04' E 103°41'611.1
2017-Aug-18 03:00N 01°04' E 103°36'612.6
2017-Aug-18 02:30N 01°08' E 103°30'1013.4
2017-Aug-18 01:46N 01°13' E 103°22'13317.1
2017-Aug-17 18:00N 02°24' E 101°30'135 5.6 180 / 211010.010.8 28.026.731.0
2017-Aug-16 18:00N 01°12' E 103°24'1117.6 090 / 101012.010.8 28.026.731.0
2017-Aug-16 17:21N 01°11' E 103°35'515.1
2017-Aug-16 17:00N 01°10' E 103°40'612.9
2017-Aug-16 16:30N 01°10' E 103°47'4 8.4
2017-Aug-16 15:59N 01°14' E 103°47'3 1.3
2017-Aug-16 14:04N 01°16' E 103°49'0 0.0
2017-Aug-16 13:04N 01°16' E 103°49'0 0.0
2017-Aug-16 12:35N 01°16' E 103°49'0 0.0
2017-Aug-16 12:29N 01°16' E 103°49'0 0.0
2017-Aug-16 11:48N 01°16' E 103°49'0 0.0
2017-Aug-16 11:24N 01°16' E 103°49'0 0.0
2017-Aug-16 10:46N 01°16' E 103°49'0 0.0
2017-Aug-16 10:30N 01°16' E 103°49'0 0.0
2017-Aug-16 09:54N 01°16' E 103°49'0 0.0
2017-Aug-16 09:30N 01°16' E 103°49'0 0.0
2017-Aug-16 08:30N 01°16' E 103°49'0 0.0
2017-Aug-16 08:01N 01°16' E 103°49'0 0.0
2017-Aug-16 07:30N 01°16' E 103°49'0 0.0
2017-Aug-16 05:42N 01°16' E 103°49'0 0.0
2017-Aug-16 05:30N 01°16' E 103°49'1 1.8
2017-Aug-16 05:00N 01°16' E 103°48'4 7.3
2017-Aug-16 04:30N 01°12' E 103°49'5 9.7
2017-Aug-16 03:59N 01°08' E 103°46'611.4
2017-Aug-16 03:30N 01°04' E 103°42'611.0
2017-Aug-16 02:58N 01°04' E 103°36'613.1
2017-Aug-16 02:29N 01°07' E 103°31'13515.9
2017-Aug-15 18:00N 02°18' E 101°36'192 8.1 200 / 81012.0 5.4 28.026.731.0
2017-Aug-14 18:21N 05°08' E 100°06'821.4
2017-Aug-14 18:00N 05°12' E 100°00'723.7 270 / 161012.0 5.4 27.025.730.0
2017-Aug-14 17:43N 05°17' E 100°04'315.2
2017-Aug-14 17:29N 05°21' E 100°04'1414.2
2017-Aug-14 16:30N 05°34' E 100°09'1013.3
2017-Aug-14 15:47N 05°31' E 100°18'7 0.8
2017-Aug-14 07:39N 05°25' E 100°21'0 0.9
2017-Aug-14 07:29N 05°25' E 100°21'4 9.1
2017-Aug-14 07:00N 05°29' E 100°20'811.3
2017-Aug-14 06:18N 05°34' E 100°14'511.3
2017-Aug-14 05:54N 05°34' E 100°09'612.4
2017-Aug-14 05:24N 05°29' E 100°05'712.8
2017-Aug-14 04:49N 05°22' E 100°04'713.8
2017-Aug-14 04:20N 05°15' E 100°04'17517.0
2017-Aug-13 18:00N 02°36' E 101°18'15516.3 280 / 101012.0 5.4 29.027.730.0
2017-Aug-13 08:29N 01°14' E 103°29'816.0
2017-Aug-13 07:59N 01°12' E 103°37'612.2
2017-Aug-13 07:30N 01°14' E 103°42'611.6
2017-Aug-13 06:59N 01°16' E 103°48'1 1.6
2017-Aug-13 06:30N 01°16' E 103°49'0 0.0
2017-Aug-13 05:57N 01°16' E 103°49'0 0.0
2017-Aug-13 05:21N 01°16' E 103°49'0 0.0
2017-Aug-13 04:54N 01°16' E 103°49'0 0.0
2017-Aug-13 04:30N 01°16' E 103°49'0 0.0
2017-Aug-13 03:57N 01°16' E 103°49'0 0.0
2017-Aug-13 03:24N 01°16' E 103°49'0 0.0
2017-Aug-13 02:18N 01°16' E 103°49'0 0.0
2017-Aug-13 01:48N 01°16' E 103°49'0 0.0
2017-Aug-13 01:26N 01°16' E 103°49'1 2.4
2017-Aug-13 00:59N 01°15' E 103°48'4 8.1
2017-Aug-13 00:30N 01°12' E 103°50'510.3
2017-Aug-12 23:59N 01°08' E 103°46'611.7
2017-Aug-12 23:31N 01°04' E 103°42'5 9.0
2017-Aug-12 22:59N 01°04' E 103°37'4 8.7
2017-Aug-12 22:29N 01°06' E 103°33'5 8.9
2017-Aug-12 21:58N 01°08' E 103°29'6 8.9
2017-Aug-12 21:20N 01°11' E 103°25'28 8.4
2017-Aug-12 18:00N 01°24' E 103°00'8 0.4 260 / 161013.0 5.4 26.026.030.0
2017-Aug-11 18:00N 01°18' E 103°06'27 6.9 200 / 101013.0 5.4 27.027.030.0
2017-Aug-11 14:07N 01°12' E 103°32'5 8.9
2017-Aug-11 13:30N 01°11' E 103°38'611.2
2017-Aug-11 13:00N 01°09' E 103°43'611.0
2017-Aug-11 12:30N 01°10' E 103°48'5 9.2
2017-Aug-11 12:00N 01°15' E 103°47'2 3.3
2017-Aug-11 11:24N 01°16' E 103°49'0 0.0
2017-Aug-11 10:57N 01°16' E 103°49'0 0.0
2017-Aug-11 10:27N 01°16' E 103°49'0 0.0
2017-Aug-11 09:58N 01°16' E 103°49'0 0.0
2017-Aug-11 09:21N 01°16' E 103°49'0 0.0
2017-Aug-11 09:00N 01°16' E 103°49'0 0.0
2017-Aug-11 08:31N 01°16' E 103°49'0 0.0
2017-Aug-11 08:00N 01°16' E 103°49'0 0.0
2017-Aug-11 07:28N 01°16' E 103°49'0 0.0
2017-Aug-11 07:00N 01°16' E 103°49'0 0.0
2017-Aug-11 06:30N 01°16' E 103°49'0 0.0
2017-Aug-11 06:00N 01°16' E 103°49'0 0.0
2017-Aug-11 05:24N 01°16' E 103°49'0 0.0
2017-Aug-11 04:51N 01°16' E 103°49'0 0.0
2017-Aug-11 04:28N 01°16' E 103°49'0 0.0
2017-Aug-11 03:39N 01°16' E 103°49'0 0.8
2017-Aug-11 03:30N 01°16' E 103°49'2 3.9
2017-Aug-11 03:00N 01°15' E 103°47'5 9.1
2017-Aug-11 02:30N 01°11' E 103°49'3 7.1
2017-Aug-11 02:00N 01°08' E 103°46'612.9
2017-Aug-11 01:30N 01°04' E 103°41'713.0
2017-Aug-11 01:00N 01°05' E 103°35'813.9
2017-Aug-11 00:26N 01°09' E 103°28'  
Track history (hours):
 
Tides and Currents Weather Stations Pressure Air Temp Water Temp Dewpoint Dewpoint Depression Visibility Wind Speed Wind Dir Waves Ship Positions

Norwegian Dream

Operator: Norwegian Cruise Line

Last reported at 2017-Aug-20 18:00 UTC. Time now 2017-Aug-20 20:44 UTC.
Position N 02°48' E 100°54'.

Type: Ship. MMSI: 308272000.

Wind from 090 at 10 knots

Barometer 1009.0 mb
Air temperature 29.0 ° C
Visibility: greater than 10.8 NM
Dewpoint 27.7 ° C
Water temperature 31.0 ° C

Date/timePositionNaut miles runAvg speedWind from/ knotsBaromVisibWave heightAir tempDewpointWater temp
2017-Aug-20 18:00N 02°48' E 100°54'18618.6 090 / 101009.010.8 29.027.731.0
2017-Aug-20 08:02N 01°12' E 103°33'119.7
2017-Aug-20 07:58N 01°12' E 103°34'714.3
2017-Aug-20 07:30N 01°13' E 103°41'612.4
2017-Aug-20 07:00N 01°15' E 103°47'2 4.5
2017-Aug-20 06:28N 01°16' E 103°49'0 0.0
2017-Aug-20 05:55N 01°16' E 103°49'0 0.0
2017-Aug-20 05:28N 01°16' E 103°49'0 0.0
2017-Aug-20 04:46N 01°16' E 103°49'0 0.0
2017-Aug-20 04:22N 01°16' E 103°49'0 0.0
2017-Aug-20 03:40N 01°16' E 103°49'0 0.0
2017-Aug-20 03:28N 01°16' E 103°49'0 0.0
2017-Aug-20 02:16N 01°16' E 103°49'0 0.0
2017-Aug-20 01:58N 01°16' E 103°49'0 0.0
2017-Aug-20 01:30N 01°16' E 103°49'1 2.8
2017-Aug-20 01:01N 01°15' E 103°48'4 7.7
2017-Aug-20 00:30N 01°12' E 103°49'5 9.3
2017-Aug-20 00:01N 01°09' E 103°46'611.1
2017-Aug-19 23:30N 01°05' E 103°42'5 9.6
2017-Aug-19 22:59N 01°04' E 103°37'4 8.9
2017-Aug-19 22:30N 01°06' E 103°34'4 8.9
2017-Aug-19 22:01N 01°08' E 103°30'5 8.9
2017-Aug-19 21:30N 01°10' E 103°26'35 9.9
2017-Aug-19 18:00N 01°24' E 102°54'19 0.8 050 / 141011.0 5.4 28.026.731.0
2017-Aug-18 18:00N 01°18' E 103°12'22 7.7 170 / 121012.010.8 27.027.030.0
2017-Aug-18 15:11N 01°12' E 103°33'2 7.9
2017-Aug-18 14:58N 01°12' E 103°35'4 7.8
2017-Aug-18 14:30N 01°11' E 103°38'7 7.0
2017-Aug-18 13:30N 01°08' E 103°45'3 6.5
2017-Aug-18 13:00N 01°10' E 103°47'3 6.0
2017-Aug-18 12:30N 01°13' E 103°48'3 5.5
2017-Aug-18 11:59N 01°16' E 103°49'0 0.0
2017-Aug-18 11:21N 01°16' E 103°49'0 0.0
2017-Aug-18 10:55N 01°16' E 103°49'0 0.0
2017-Aug-18 09:33N 01°16' E 103°49'0 0.0
2017-Aug-18 09:27N 01°16' E 103°49'0 0.0
2017-Aug-18 08:51N 01°16' E 103°49'0 0.0
2017-Aug-18 08:27N 01°16' E 103°49'0 0.0
2017-Aug-18 07:51N 01°16' E 103°49'0 0.0
2017-Aug-18 07:21N 01°16' E 103°49'0 0.0
2017-Aug-18 06:58N 01°16' E 103°49'0 0.0
2017-Aug-18 06:28N 01°16' E 103°49'0 0.0
2017-Aug-18 05:58N 01°16' E 103°49'0 0.0
2017-Aug-18 05:27N 01°16' E 103°49'1 2.1
2017-Aug-18 05:00N 01°16' E 103°48'4 7.1
2017-Aug-18 04:30N 01°12' E 103°49'5 9.7
2017-Aug-18 04:00N 01°08' E 103°46'612.1
2017-Aug-18 03:30N 01°04' E 103°41'611.1
2017-Aug-18 03:00N 01°04' E 103°36'612.6
2017-Aug-18 02:30N 01°08' E 103°30'1013.4
2017-Aug-18 01:46N 01°13' E 103°22'13317.1
2017-Aug-17 18:00N 02°24' E 101°30'135 5.6 180 / 211010.010.8 28.026.731.0
2017-Aug-16 18:00N 01°12' E 103°24'1117.6 090 / 101012.010.8 28.026.731.0
2017-Aug-16 17:21N 01°11' E 103°35'515.1
2017-Aug-16 17:00N 01°10' E 103°40'612.9
2017-Aug-16 16:30N 01°10' E 103°47'4 8.4
2017-Aug-16 15:59N 01°14' E 103°47'3 1.3
2017-Aug-16 14:04N 01°16' E 103°49'0 0.0
2017-Aug-16 13:04N 01°16' E 103°49'0 0.0
2017-Aug-16 12:35N 01°16' E 103°49'0 0.0
2017-Aug-16 12:29N 01°16' E 103°49'0 0.0
2017-Aug-16 11:48N 01°16' E 103°49'0 0.0
2017-Aug-16 11:24N 01°16' E 103°49'0 0.0
2017-Aug-16 10:46N 01°16' E 103°49'0 0.0
2017-Aug-16 10:30N 01°16' E 103°49'0 0.0
2017-Aug-16 09:54N 01°16' E 103°49'0 0.0
2017-Aug-16 09:30N 01°16' E 103°49'0 0.0
2017-Aug-16 08:30N 01°16' E 103°49'0 0.0
2017-Aug-16 08:01N 01°16' E 103°49'0 0.0
2017-Aug-16 07:30N 01°16' E 103°49'0 0.0
2017-Aug-16 05:42N 01°16' E 103°49'0 0.0
2017-Aug-16 05:30N 01°16' E 103°49'1 1.8
2017-Aug-16 05:00N 01°16' E 103°48'4 7.3
2017-Aug-16 04:30N 01°12' E 103°49'5 9.7
2017-Aug-16 03:59N 01°08' E 103°46'611.4
2017-Aug-16 03:30N 01°04' E 103°42'611.0
2017-Aug-16 02:58N 01°04' E 103°36'613.1
2017-Aug-16 02:29N 01°07' E 103°31'13515.9
2017-Aug-15 18:00N 02°18' E 101°36'192 8.1 200 / 81012.0 5.4 28.026.731.0
2017-Aug-14 18:21N 05°08' E 100°06'821.4
2017-Aug-14 18:00N 05°12' E 100°00'723.7 270 / 161012.0 5.4 27.025.730.0
2017-Aug-14 17:43N 05°17' E 100°04'315.2
2017-Aug-14 17:29N 05°21' E 100°04'1414.2
2017-Aug-14 16:30N 05°34' E 100°09'1013.3
2017-Aug-14 15:47N 05°31' E 100°18'7 0.8
2017-Aug-14 07:39N 05°25' E 100°21'0 0.9
2017-Aug-14 07:29N 05°25' E 100°21'4 9.1
2017-Aug-14 07:00N 05°29' E 100°20'811.3
2017-Aug-14 06:18N 05°34' E 100°14'511.3
2017-Aug-14 05:54N 05°34' E 100°09'612.4
2017-Aug-14 05:24N 05°29' E 100°05'712.8
2017-Aug-14 04:49N 05°22' E 100°04'713.8
2017-Aug-14 04:20N 05°15' E 100°04'17517.0
2017-Aug-13 18:00N 02°36' E 101°18'15516.3 280 / 101012.0 5.4 29.027.730.0
2017-Aug-13 08:29N 01°14' E 103°29'816.0
2017-Aug-13 07:59N 01°12' E 103°37'612.2
2017-Aug-13 07:30N 01°14' E 103°42'611.6
2017-Aug-13 06:59N 01°16' E 103°48'1 1.6
2017-Aug-13 06:30N 01°16' E 103°49'0 0.0
2017-Aug-13 05:57N 01°16' E 103°49'0 0.0
2017-Aug-13 05:21N 01°16' E 103°49'0 0.0
2017-Aug-13 04:54N 01°16' E 103°49'0 0.0
2017-Aug-13 04:30N 01°16' E 103°49'0 0.0
2017-Aug-13 03:57N 01°16' E 103°49'0 0.0
2017-Aug-13 03:24N 01°16' E 103°49'0 0.0
2017-Aug-13 02:18N 01°16' E 103°49'0 0.0
2017-Aug-13 01:48N 01°16' E 103°49'0 0.0
2017-Aug-13 01:26N 01°16' E 103°49'1 2.4
2017-Aug-13 00:59N 01°15' E 103°48'4 8.1
2017-Aug-13 00:30N 01°12' E 103°50'510.3
2017-Aug-12 23:59N 01°08' E 103°46'611.7
2017-Aug-12 23:31N 01°04' E 103°42'5 9.0
2017-Aug-12 22:59N 01°04' E 103°37'4 8.7
2017-Aug-12 22:29N 01°06' E 103°33'5 8.9
2017-Aug-12 21:58N 01°08' E 103°29'6 8.9
2017-Aug-12 21:20N 01°11' E 103°25'28 8.4
2017-Aug-12 18:00N 01°24' E 103°00'8 0.4 260 / 161013.0 5.4 26.026.030.0
2017-Aug-11 18:00N 01°18' E 103°06'27 6.9 200 / 101013.0 5.4 27.027.030.0
2017-Aug-11 14:07N 01°12' E 103°32'5 8.9
2017-Aug-11 13:30N 01°11' E 103°38'611.2
2017-Aug-11 13:00N 01°09' E 103°43'611.0
2017-Aug-11 12:30N 01°10' E 103°48'5 9.2
2017-Aug-11 12:00N 01°15' E 103°47'2 3.3
2017-Aug-11 11:24N 01°16' E 103°49'0 0.0
2017-Aug-11 10:57N 01°16' E 103°49'0 0.0
2017-Aug-11 10:27N 01°16' E 103°49'0 0.0
2017-Aug-11 09:58N 01°16' E 103°49'0 0.0
2017-Aug-11 09:21N 01°16' E 103°49'0 0.0
2017-Aug-11 09:00N 01°16' E 103°49'0 0.0
2017-Aug-11 08:31N 01°16' E 103°49'0 0.0
2017-Aug-11 08:00N 01°16' E 103°49'0 0.0
2017-Aug-11 07:28N 01°16' E 103°49'0 0.0
2017-Aug-11 07:00N 01°16' E 103°49'0 0.0
2017-Aug-11 06:30N 01°16' E 103°49'0 0.0
2017-Aug-11 06:00N 01°16' E 103°49'0 0.0
2017-Aug-11 05:24N 01°16' E 103°49'0 0.0
2017-Aug-11 04:51N 01°16' E 103°49'0 0.0
2017-Aug-11 04:28N 01°16' E 103°49'0 0.0
2017-Aug-11 03:39N 01°16' E 103°49'0 0.8
2017-Aug-11 03:30N 01°16' E 103°49'2 3.9
2017-Aug-11 03:00N 01°15' E 103°47'5 9.1
2017-Aug-11 02:30N 01°11' E 103°49'3 7.1
2017-Aug-11 02:00N 01°08' E 103°46'612.9
2017-Aug-11 01:30N 01°04' E 103°41'713.0
2017-Aug-11 01:00N 01°05' E 103°35'813.9
2017-Aug-11 00:26N 01°09' E 103°28'  

Dump ship's entire track history